Time;durP1;ratioP1;P1;durP2;ratioP2;P2;SDS_P1;SDS_P2;PMS_P1;PMS_P2;Temp;Humidity;BMP_temperature;BMP_pressure;BME280_temperature;BME280_humidity;BME280_pressure;Samples;Min_cycle;Max_cycle;Signal;HPM_P1;HPM_P2
2022/03/28 00:31:42;;;;;;;13.03;8.57;;;3.90;99.90;;;;;;5681646;23;20078;-83
2022/03/28 01:32:19;;;;;;;14.52;9.95;;;3.40;99.90;;;;;;5826182;23;20056;-84
2022/03/28 01:45:45;;;;;;;17.63;9.85;;;3.40;99.90;;;;;;4883551;29;20076;-85
2022/03/28 02:05:11;;;;;;;19.10;9.80;;;3.20;99.90;;;;;;6051754;23;20827;-84
2022/03/28 03:34:08;;;;;;;17.20;10.40;;;2.20;99.90;;;;;;5642713;23;20054;-83
2022/03/28 04:03:10;;;;;;;23.53;8.97;;;2.30;99.90;;;;;;5676633;23;20032;-84
2022/03/28 04:16:17;;;;;;;18.92;9.88;;;2.40;99.90;;;;;;4994396;23;20056;-82
2022/03/28 04:18:43;;;;;;;19.92;9.82;;;2.30;99.90;;;;;;4909413;29;20050;-81
2022/03/28 04:21:09;;;;;;;17.70;10.30;;;2.70;99.90;;;;;;4915587;29;20027;-82
2022/03/28 04:23:34;;;;;;;17.98;10.23;;;1.70;99.90;;;;;;4937281;29;20036;-81
2022/03/28 04:26:02;;;;;;;18.63;10.43;;;2.80;99.90;;;;;;4938382;29;20035;-83
2022/03/28 04:28:33;;;;;;;17.38;10.10;;;2.20;99.90;;;;;;4916475;29;20468;-82
2022/03/28 04:30:59;;;;;;;15.73;9.75;;;2.90;99.90;;;;;;4923767;29;20064;-83
2022/03/28 04:33:27;;;;;;;17.75;10.00;;;3.40;99.90;;;;;;4927485;29;20032;-84
2022/03/28 05:10:14;;;;;;;20.92;10.82;;;2.30;99.90;;;;;;5502381;23;20048;-85
2022/03/28 05:25:37;;;;;;;20.20;10.35;;;2.30;99.90;;;;;;2941127;23;20036;-84
2022/03/28 05:28:05;;;;;;;18.75;10.68;;;3.10;99.90;;;;;;5369591;23;20019;-83
2022/03/28 05:30:30;;;;;;;16.92;10.35;;;2.20;99.90;;;;;;4891177;29;20084;-84
2022/03/28 05:32:57;;;;;;;28.88;11.55;;;3.10;99.90;;;;;;4922533;29;20017;-85
2022/03/28 05:43:16;;;;;;;28.42;13.02;;;2.60;99.90;;;;;;4947523;23;20052;-80
2022/03/28 05:45:42;;;;;;;24.38;12.35;;;3.40;99.90;;;;;;4909163;29;20048;-82
2022/03/28 05:48:08;;;;;;;26.50;11.40;;;3.50;99.90;;;;;;4909241;29;20490;-81
2022/03/28 05:50:33;;;;;;;22.60;13.23;;;3.70;99.90;;;;;;4910969;29;20032;-81
2022/03/28 05:52:59;;;;;;;22.70;11.43;;;2.80;99.90;;;;;;4911121;29;20028;-82
2022/03/28 05:55:25;;;;;;;23.38;11.52;;;3.20;99.90;;;;;;4910697;29;20059;-81
2022/03/28 05:57:51;;;;;;;20.60;12.32;;;3.40;99.90;;;;;;4927999;29;20036;-80
2022/03/28 06:00:20;;;;;;;18.70;11.60;;;3.50;99.90;;;;;;4930727;29;20036;-82
2022/03/28 06:02:46;;;;;;;26.20;11.30;;;3.10;99.90;;;;;;4912695;29;20022;-81
2022/03/28 06:05:19;;;;;;;23.48;12.02;;;3.30;99.90;;;;;;4915868;29;20028;-82
2022/03/28 06:07:47;;;;;;;22.23;11.93;;;3.30;99.90;;;;;;4936976;29;20040;-82
2022/03/28 06:10:13;;;;;;;24.70;12.45;;;3.40;99.90;;;;;;4917354;29;20032;-82
2022/03/28 06:15:10;;;;;;;19.92;11.52;;;3.50;99.90;;;;;;5037508;23;20027;-81
2022/03/28 06:22:42;;;;;;;23.17;12.65;;;3.90;99.90;;;;;;4917981;29;20117;-82
2022/03/28 06:27:33;;;;;;;28.13;13.73;;;4.20;99.90;;;;;;4978365;23;20037;-81
2022/03/28 06:29:58;;;;;;;22.73;13.65;;;4.70;99.90;;;;;;4912828;29;20064;-81
2022/03/28 06:32:24;;;;;;;30.40;12.82;;;4.40;99.90;;;;;;4919893;29;20032;-84
2022/03/28 06:34:54;;;;;;;27.20;13.55;;;5.00;99.90;;;;;;4920003;29;20023;-82
2022/03/28 06:37:23;;;;;;;21.20;14.02;;;4.60;99.90;;;;;;4917895;29;20058;-81
2022/03/28 06:39:50;;;;;;;22.38;12.55;;;4.80;99.90;;;;;;4916564;29;20028;-81
2022/03/28 06:42:34;;;;;;;22.67;13.02;;;5.20;99.90;;;;;;4937642;29;20032;-82
2022/03/28 06:45:00;;;;;;;20.75;12.05;;;5.10;99.90;;;;;;4924827;29;20048;-81
2022/03/28 06:47:28;;;;;;;22.02;12.75;;;5.30;99.90;;;;;;4908024;29;20083;-81
2022/03/28 06:49:54;;;;;;;20.90;11.88;;;5.40;99.90;;;;;;4905110;29;20032;-82
2022/03/28 06:52:20;;;;;;;23.08;11.73;;;5.60;99.90;;;;;;4911609;29;20032;-80
2022/03/28 06:54:46;;;;;;;24.20;12.60;;;6.10;99.90;;;;;;4903745;29;20032;-79
2022/03/28 06:57:12;;;;;;;18.15;11.40;;;5.80;99.90;;;;;;4908373;29;20119;-81
2022/03/28 06:59:38;;;;;;;20.52;12.65;;;6.00;99.90;;;;;;4960792;23;20063;-82
2022/03/28 07:02:05;;;;;;;21.80;12.18;;;6.20;99.90;;;;;;4907117;29;20032;-82
2022/03/28 07:04:31;;;;;;;29.85;14.05;;;6.40;99.90;;;;;;4907288;29;20040;-82
2022/03/28 07:06:57;;;;;;;23.20;12.20;;;6.60;99.90;;;;;;4922680;29;20109;-82
2022/03/28 07:09:22;;;;;;;24.50;12.13;;;6.80;99.90;;;;;;4906499;29;20032;-81
2022/03/28 07:11:50;;;;;;;18.38;11.85;;;7.00;99.90;;;;;;4928120;29;20040;-82
2022/03/28 07:14:19;;;;;;;19.65;12.15;;;7.10;99.90;;;;;;4925502;29;20046;-85
2022/03/28 07:16:45;;;;;;;16.40;11.40;;;7.30;99.90;;;;;;4907415;29;20512;-81
2022/03/28 07:19:13;;;;;;;18.02;11.90;;;7.50;99.90;;;;;;4907466;29;20035;-87
2022/03/28 07:21:39;;;;;;;18.10;11.77;;;7.60;99.90;;;;;;4906880;29;20376;-80
2022/03/28 07:24:05;;;;;;;16.25;11.10;;;7.80;99.90;;;;;;4924156;29;20040;-82
2022/03/28 07:26:44;;;;;;;17.88;10.45;;;8.00;99.90;;;;;;4909488;29;20040;-82
2022/03/28 07:29:17;;;;;;;15.27;10.05;;;8.20;99.90;;;;;;4922125;29;20036;-86
2022/03/28 07:36:55;;;;;;;14.52;9.75;;;8.70;99.90;;;;;;5035895;23;20051;-91
2022/03/28 07:39:21;;;;;;;19.60;10.60;;;8.90;99.90;;;;;;4956382;23;20039;-83
2022/03/28 07:41:51;;;;;;;18.02;10.63;;;9.10;99.90;;;;;;4925818;29;20052;-83
2022/03/28 07:44:18;;;;;;;18.33;9.43;;;9.30;99.90;;;;;;5047411;23;20060;-82
2022/03/28 07:46:45;;;;;;;15.30;10.13;;;9.50;99.90;;;;;;4925278;29;20017;-86
2022/03/28 07:54:42;;;;;;;19.05;11.60;;;10.20;99.90;;;;;;4947926;23;20056;-87
2022/03/28 07:59:37;;;;;;;16.17;9.93;;;10.70;99.90;;;;;;4952693;23;20053;-81
2022/03/28 08:04:32;;;;;;;17.38;10.10;;;11.10;99.40;;;;;;5054434;23;20063;-81
2022/03/28 08:07:03;;;;;;;12.80;9.18;;;11.30;98.60;;;;;;4944560;23;20059;-81
2022/03/28 08:09:31;;;;;;;13.10;8.65;;;11.40;98.00;;;;;;4915654;29;20092;-80
2022/03/28 08:11:59;;;;;;;12.68;8.55;;;11.60;96.90;;;;;;4919616;29;20045;-80
2022/03/28 08:14:37;;;;;;;14.02;8.88;;;11.70;96.70;;;;;;4936272;23;20056;-80
2022/03/28 08:17:24;;;;;;;11.30;8.35;;;11.90;96.00;;;;;;4941105;23;20060;-78
2022/03/28 08:19:50;;;;;;;15.07;9.38;;;12.00;95.50;;;;;;4931699;29;20033;-80
2022/03/28 08:22:17;;;;;;;13.65;8.70;;;12.20;95.50;;;;;;4908874;29;20035;-79
2022/03/28 08:24:43;;;;;;;12.90;8.48;;;12.30;94.90;;;;;;4908068;29;20055;-80
2022/03/28 08:27:12;;;;;;;15.05;8.32;;;12.40;94.10;;;;;;4907316;29;20028;-80
2022/03/28 08:29:37;;;;;;;12.75;7.90;;;12.60;93.50;;;;;;4906622;29;20127;-79
2022/03/28 08:32:04;;;;;;;14.43;9.10;;;12.80;93.00;;;;;;4908505;29;20480;-79
2022/03/28 08:34:33;;;;;;;12.65;7.65;;;12.90;92.50;;;;;;4922339;29;20080;-80
2022/03/28 08:36:59;;;;;;;15.93;8.98;;;13.00;92.90;;;;;;4905360;29;20096;-80
2022/03/28 08:39:25;;;;;;;12.93;8.45;;;13.20;92.50;;;;;;4905313;29;20063;-79
2022/03/28 08:41:51;;;;;;;14.45;8.80;;;13.30;91.80;;;;;;4923881;29;20020;-80
2022/03/28 08:44:19;;;;;;;14.13;8.32;;;13.50;91.50;;;;;;4906450;29;20036;-80
2022/03/28 08:46:49;;;;;;;14.48;7.85;;;13.70;90.80;;;;;;4925235;29;20020;-80
2022/03/28 08:49:19;;;;;;;16.98;8.13;;;13.80;90.50;;;;;;4926794;29;20028;-81
2022/03/28 08:51:44;;;;;;;13.30;7.70;;;14.10;90.00;;;;;;4919110;23;20083;-79
2022/03/28 08:54:10;;;;;;;9.57;7.45;;;14.20;88.50;;;;;;4931562;28;20040;-82
2022/03/28 08:56:36;;;;;;;13.23;8.85;;;14.30;87.90;;;;;;4930566;28;20036;-80
2022/03/28 09:01:29;;;;;;;14.07;7.15;;;14.60;85.50;;;;;;4933871;23;20056;-81
2022/03/28 09:04:05;;;;;;;9.63;7.28;;;14.60;85.10;;;;;;4927988;29;20040;-82
2022/03/28 09:06:39;;;;;;;11.85;7.55;;;14.70;84.60;;;;;;4904543;29;20043;-87
2022/03/28 09:09:16;;;;;;;14.18;6.88;;;14.80;83.40;;;;;;4927562;29;20088;-79
2022/03/28 09:11:54;;;;;;;11.57;7.43;;;15.00;83.60;;;;;;4927155;29;20461;-79
2022/03/28 09:14:31;;;;;;;10.63;7.53;;;15.10;82.40;;;;;;4930180;28;20021;-80
2022/03/28 09:17:16;;;;;;;8.85;6.85;;;15.20;81.40;;;;;;4921753;29;20039;-79
2022/03/28 09:19:49;;;;;;;11.15;6.95;;;15.40;82.30;;;;;;4902084;29;20021;-78
2022/03/28 09:22:17;;;;;;;9.75;6.65;;;15.50;80.20;;;;;;4908595;29;20487;-92
2022/03/28 09:24:45;;;;;;;9.27;7.22;;;15.60;79.10;;;;;;4913559;29;20055;-78
2022/03/28 09:27:36;;;;;;;9.38;6.43;;;15.70;78.40;;;;;;4986179;23;20495;-89
2022/03/28 09:30:17;;;;;;;12.52;6.53;;;15.80;77.20;;;;;;4902788;29;20036;-91
2022/03/28 09:32:49;;;;;;;;;;;15.80;77.10;;;;;;4919639;29;20024;-93
2022/03/28 09:35:21;;;;;;;12.18;7.00;;;15.90;77.40;;;;;;4902135;29;19914;-92
2022/03/28 09:38:05;;;;;;;10.95;6.35;;;16.10;77.30;;;;;;4902487;29;20035;-92
2022/03/28 09:40:45;;;;;;;16.42;7.88;;;16.10;75.80;;;;;;4918955;29;20043;-94
2022/03/28 09:43:18;;;;;;;13.35;7.18;;;16.20;75.00;;;;;;4902223;29;20395;-94
2022/03/28 09:45:53;;;;;;;11.98;6.72;;;16.40;72.80;;;;;;4901868;29;20040;-94
2022/03/28 09:48:20;;;;;;;9.70;6.20;;;16.40;71.60;;;;;;4902265;29;20099;-91
2022/03/28 09:50:49;;;;;;;8.73;5.97;;;16.50;73.90;;;;;;4918085;29;20039;-92
2022/03/28 09:53:16;;;;;;;13.32;6.35;;;16.70;77.40;;;;;;4918832;29;20080;-92
2022/03/28 09:55:56;;;;;;;10.27;6.30;;;16.80;72.00;;;;;;4918604;29;20026;-94
2022/03/28 09:58:47;;;;;;;9.27;7.18;;;16.90;70.30;;;;;;4918701;29;20486;-94
2022/03/28 10:01:18;;;;;;;12.05;6.95;;;17.00;69.00;;;;;;4918747;29;20028;-93
2022/03/28 10:04:06;;;;;;;10.80;6.45;;;17.00;69.80;;;;;;4902156;29;20039;-95
2022/03/28 10:06:33;;;;;;;9.18;6.70;;;17.20;70.00;;;;;;4901812;29;20083;-93
2022/03/28 10:08:59;;;;;;;13.07;7.68;;;17.30;68.00;;;;;;4901958;29;20096;-93
2022/03/28 10:11:26;;;;;;;11.23;6.97;;;17.30;67.80;;;;;;4901496;29;20055;-94
2022/03/28 10:13:52;;;;;;;11.68;8.38;;;17.40;66.60;;;;;;4901800;29;20544;-95
2022/03/28 10:16:18;;;;;;;10.90;6.85;;;17.30;66.70;;;;;;4918260;29;20036;-93
2022/03/28 10:18:45;;;;;;;12.25;6.90;;;17.30;67.40;;;;;;4901134;29;20055;-94
2022/03/28 10:21:31;;;;;;;12.18;7.35;;;17.30;67.40;;;;;;4901499;29;20028;-93
2022/03/28 10:24:11;;;;;;;11.70;8.05;;;17.40;67.40;;;;;;4901419;29;20025;-96
2022/03/28 10:26:39;;;;;;;15.30;8.82;;;17.40;65.80;;;;;;4901300;29;20095;-96
2022/03/28 10:29:17;;;;;;;16.30;7.05;;;17.50;65.50;;;;;;4918287;29;20080;-94
2022/03/28 10:32:20;;;;;;;11.90;7.03;;;17.60;67.00;;;;;;4918401;29;20020;-93
2022/03/28 10:34:49;;;;;;;15.52;7.80;;;17.70;64.00;;;;;;4901164;29;20088;-94
2022/03/28 10:37:35;;;;;;;15.40;7.28;;;17.80;65.40;;;;;;4901444;29;20034;-93
2022/03/28 10:40:16;;;;;;;13.23;7.75;;;17.80;64.80;;;;;;4918594;29;20028;-94
2022/03/28 10:42:48;;;;;;;15.00;7.40;;;17.80;64.50;;;;;;4902839;29;20020;-95
2022/03/28 10:45:19;;;;;;;11.90;6.60;;;17.80;64.80;;;;;;4919638;29;20043;-96
2022/03/28 10:47:54;;;;;;;10.15;7.32;;;17.90;64.90;;;;;;4917935;29;20016;-96
2022/03/28 10:50:37;;;;;;;11.18;7.30;;;18.00;63.80;;;;;;4919056;29;20066;-95
2022/03/28 10:53:11;;;;;;;21.60;9.35;;;18.10;63.90;;;;;;4924107;29;20032;-94
2022/03/28 10:55:53;;;;;;;17.20;7.20;;;18.30;62.20;;;;;;4927096;29;20028;-94
2022/03/28 10:58:19;;;;;;;11.60;7.95;;;18.30;61.70;;;;;;4904031;29;20084;-95
2022/03/28 11:01:12;;;;;;;14.18;8.68;;;18.40;60.60;;;;;;4906593;29;20025;-92
2022/03/28 11:03:44;;;;;;;10.10;6.97;;;18.40;59.50;;;;;;4929450;29;20029;-95
2022/03/28 11:06:11;;;;;;;15.73;8.38;;;18.40;59.20;;;;;;4931066;29;20032;-93
2022/03/28 11:08:39;;;;;;;13.43;8.13;;;18.50;59.00;;;;;;4927896;29;20020;-95
2022/03/28 11:11:22;;;;;;;28.63;8.35;;;18.60;58.60;;;;;;4911275;29;20024;-96
2022/03/28 11:13:58;;;;;;;19.73;8.60;;;18.70;60.20;;;;;;4928776;29;20021;-96
2022/03/28 11:16:40;;;;;;;11.20;7.53;;;18.80;58.20;;;;;;4925946;29;20386;-96
2022/03/28 11:19:18;;;;;;;17.20;8.90;;;18.80;59.10;;;;;;4908808;29;20154;-95
2022/03/28 11:22:08;;;;;;;12.30;7.40;;;18.90;58.40;;;;;;4910881;29;20036;-95
2022/03/28 11:24:58;;;;;;;15.57;8.20;;;18.90;56.80;;;;;;4913020;29;20179;-95
2022/03/28 11:27:29;;;;;;;14.60;7.53;;;18.90;57.30;;;;;;4932674;29;20036;-94
2022/03/28 11:30:05;;;;;;;13.77;7.07;;;19.10;56.90;;;;;;4933302;29;20028;-96
2022/03/28 11:32:31;;;;;;;;;;;19.20;57.00;;;;;;4931699;29;20030;-96
2022/03/28 11:34:57;;;;;;;12.07;7.60;;;19.40;55.30;;;;;;4910839;29;19907;-89
2022/03/28 11:37:28;;;;;;;13.63;8.07;;;19.40;54.70;;;;;;4909474;29;20100;-96
2022/03/28 11:40:00;;;;;;;12.77;7.57;;;19.40;54.00;;;;;;4912491;29;20024;-96
2022/03/28 11:42:35;;;;;;;10.75;7.47;;;19.50;55.10;;;;;;4913692;29;20055;-94
2022/03/28 11:45:09;;;;;;;11.32;8.02;;;19.60;54.40;;;;;;4931779;29;20051;-96
2022/03/28 11:47:40;;;;;;;13.00;8.00;;;19.60;53.10;;;;;;4930001;29;20025;-96
2022/03/28 11:50:08;;;;;;;13.30;8.00;;;19.60;52.70;;;;;;4930408;29;20063;-96
2022/03/28 11:52:35;;;;;;;15.18;8.82;;;19.60;51.90;;;;;;4931570;29;20043;-95
2022/03/28 11:55:02;;;;;;;13.57;8.80;;;19.60;53.40;;;;;;4933096;29;20032;-96
2022/03/28 12:00:20;;;;;;;12.98;8.07;;;19.90;53.10;;;;;;4926639;29;20499;-95
2022/03/28 12:02:51;;;;;;;12.43;7.88;;;20.00;52.80;;;;;;4922528;29;20042;-93
2022/03/28 12:05:36;;;;;;;13.23;8.65;;;20.20;53.00;;;;;;4920539;29;20086;-92
2022/03/28 12:08:09;;;;;;;16.77;8.80;;;20.20;51.80;;;;;;4920500;29;20044;-81
2022/03/28 12:10:37;;;;;;;17.40;9.05;;;20.20;51.10;;;;;;4901676;29;20092;-81
2022/03/28 12:13:09;;;;;;;12.40;9.40;;;20.30;51.90;;;;;;4917489;29;20387;-80
2022/03/28 12:15:40;;;;;;;15.20;8.93;;;20.20;52.70;;;;;;4903057;29;20032;-94
2022/03/28 12:18:09;;;;;;;15.02;9.63;;;20.10;51.00;;;;;;4903705;29;20066;-94
2022/03/28 12:20:38;;;;;;;12.65;8.65;;;20.00;51.80;;;;;;4920642;29;20028;-94
2022/03/28 12:23:05;;;;;;;15.05;9.18;;;20.00;51.90;;;;;;4903735;29;20036;-95
2022/03/28 12:25:38;;;;;;;15.90;10.38;;;20.00;51.40;;;;;;4919972;29;20107;-94
2022/03/28 12:28:08;;;;;;;16.30;9.80;;;20.10;52.20;;;;;;4903607;29;20591;-93
2022/03/28 12:30:42;;;;;;;54.90;13.48;;;20.30;49.70;;;;;;4920198;29;20092;-94
2022/03/28 12:33:18;;;;;;;16.92;9.75;;;20.30;47.60;;;;;;4923659;29;20079;-95
2022/03/28 12:36:00;;;;;;;14.68;9.95;;;20.30;49.20;;;;;;4904836;29;20119;-92
2022/03/28 12:38:34;;;;;;;12.65;9.30;;;20.20;49.10;;;;;;4920059;29;20039;-94
2022/03/28 12:41:08;;;;;;;13.68;9.73;;;20.30;47.90;;;;;;4903588;29;20496;-94
2022/03/28 12:43:34;;;;;;;52.97;11.73;;;20.30;48.00;;;;;;4903178;29;20115;-92
2022/03/28 12:46:04;;;;;;;13.98;9.07;;;20.40;48.30;;;;;;4920091;29;20032;-93
2022/03/28 12:48:39;;;;;;;19.67;10.77;;;20.40;48.60;;;;;;4903384;29;20111;-93
2022/03/28 12:51:06;;;;;;;12.98;9.98;;;20.40;47.80;;;;;;4922558;29;20066;-91
2022/03/28 12:53:33;;;;;;;12.55;9.43;;;20.50;47.50;;;;;;4908321;29;20028;-95
2022/03/28 12:56:19;;;;;;;14.45;9.85;;;20.50;47.50;;;;;;4922182;29;20031;-94
2022/03/28 12:58:59;;;;;;;21.03;10.60;;;20.50;47.10;;;;;;4903872;29;20476;-90
2022/03/28 13:01:30;;;;;;;12.90;10.20;;;20.50;48.10;;;;;;4902435;29;20270;-93
2022/03/28 13:04:21;;;;;;;17.23;11.32;;;20.60;47.20;;;;;;4894686;29;20131;-92
2022/03/28 13:06:50;;;;;;;13.68;9.75;;;20.60;48.30;;;;;;4883634;29;20534;-95
2022/03/28 13:09:22;;;;;;;13.32;9.70;;;20.70;48.30;;;;;;4884032;29;20029;-94
2022/03/28 13:11:48;;;;;;;16.58;10.30;;;20.70;48.20;;;;;;4884451;29;20025;-94
2022/03/28 13:14:27;;;;;;;20.60;10.20;;;20.60;47.20;;;;;;4884936;29;20025;-91
2022/03/28 13:17:13;;;;;;;15.95;10.18;;;20.60;48.10;;;;;;4884781;29;20032;-95
2022/03/28 13:20:00;;;;;;;18.65;9.55;;;20.60;48.30;;;;;;4886042;29;20039;-95
2022/03/28 13:22:28;;;;;;;16.10;10.02;;;20.70;48.60;;;;;;4885843;29;20040;-95
2022/03/28 13:25:10;;;;;;;12.23;9.32;;;20.60;47.60;;;;;;4902057;29;20047;-96
2022/03/28 13:30:23;;;;;;;16.38;10.20;;;20.80;48.70;;;;;;4903430;29;20116;-96
2022/03/28 13:32:49;;;;;;;13.63;9.52;;;20.90;47.40;;;;;;4886733;29;20064;-93
2022/03/28 13:35:16;;;;;;;13.80;9.90;;;20.90;47.90;;;;;;4902578;29;20020;-95
2022/03/28 13:38:02;;;;;;;22.17;10.75;;;20.90;48.60;;;;;;4886663;29;20024;-96
2022/03/28 13:40:29;;;;;;;;;;;21.00;48.60;;;;;;4886645;29;20088;-96
2022/03/28 13:42:55;;;;;;;12.70;9.57;;;20.90;47.20;;;;;;4886271;29;19907;-94
2022/03/28 13:45:23;;;;;;;18.25;9.35;;;20.80;46.40;;;;;;4882552;29;20452;-95
2022/03/28 13:47:50;;;;;;;12.68;9.38;;;20.80;46.30;;;;;;4882080;29;20103;-96
2022/03/28 13:50:16;;;;;;;13.02;9.93;;;20.80;46.60;;;;;;4882501;29;20388;-95
2022/03/28 13:52:43;;;;;;;15.05;9.45;;;20.90;45.30;;;;;;4899586;29;20029;-96
2022/03/28 13:55:10;;;;;;;13.48;9.27;;;21.00;46.70;;;;;;4898280;29;20029;-92
2022/03/28 13:57:36;;;;;;;14.25;8.85;;;21.10;46.60;;;;;;4881890;29;20093;-94
2022/03/28 14:00:02;;;;;;;29.30;10.65;;;21.10;46.70;;;;;;4881849;29;20054;-94
2022/03/28 14:02:28;;;;;;;11.73;8.82;;;21.10;46.60;;;;;;4882036;29;20032;-96
2022/03/28 14:04:53;;;;;;;12.27;9.40;;;21.20;46.40;;;;;;4881656;29;20041;-94
2022/03/28 14:07:19;;;;;;;18.80;10.10;;;21.20;46.80;;;;;;4883199;29;20028;-83
2022/03/28 14:09:45;;;;;;;21.27;10.27;;;21.30;47.00;;;;;;4883612;29;20032;-93
2022/03/28 14:12:10;;;;;;;15.00;9.77;;;21.20;46.40;;;;;;4883920;29;20020;-94
2022/03/28 14:14:37;;;;;;;11.73;10.15;;;21.20;46.10;;;;;;4900753;29;20112;-93
2022/03/28 14:17:03;;;;;;;17.88;10.70;;;21.20;46.60;;;;;;4884629;29;20060;-91
2022/03/28 14:19:32;;;;;;;13.73;9.60;;;21.20;45.70;;;;;;4883991;29;20583;-92
2022/03/28 14:21:58;;;;;;;13.35;9.77;;;21.20;46.50;;;;;;4882834;29;20035;-93
2022/03/28 14:24:23;;;;;;;14.45;9.48;;;21.20;46.60;;;;;;4882733;29;20040;-93
2022/03/28 14:26:49;;;;;;;12.93;10.23;;;21.20;46.50;;;;;;4881688;29;20634;-94
2022/03/28 14:29:15;;;;;;;18.20;10.75;;;21.10;46.60;;;;;;4882166;29;20032;-94
2022/03/28 14:31:40;;;;;;;14.60;10.05;;;21.10;46.70;;;;;;4898041;29;20056;-93
2022/03/28 14:34:06;;;;;;;17.85;9.90;;;21.00;47.10;;;;;;4880760;29;20088;-93
2022/03/28 14:36:32;;;;;;;16.45;9.60;;;21.00;46.90;;;;;;4882123;29;20120;-92
2022/03/28 14:38:58;;;;;;;16.58;9.63;;;21.00;47.40;;;;;;4882614;29;20025;-94
2022/03/28 14:41:23;;;;;;;18.85;10.35;;;21.10;47.10;;;;;;4882446;29;20480;-92
2022/03/28 14:43:49;;;;;;;15.13;10.52;;;21.10;47.80;;;;;;4882392;29;20025;-92
2022/03/28 14:48:59;;;;;;;13.23;9.90;;;21.00;47.10;;;;;;4899295;29;20110;-92
2022/03/28 14:51:25;;;;;;;16.15;10.23;;;21.00;46.50;;;;;;4882595;29;20051;-92
2022/03/28 14:53:50;;;;;;;14.60;9.57;;;21.00;46.40;;;;;;4882313;29;20092;-93
2022/03/28 14:56:16;;;;;;;15.43;9.18;;;21.00;46.20;;;;;;4882434;29;20028;-93
2022/03/28 14:58:42;;;;;;;12.63;8.98;;;21.00;46.80;;;;;;4882674;29;20088;-92
2022/03/28 15:01:08;;;;;;;12.30;9.48;;;21.00;46.40;;;;;;4898942;29;20388;-93
2022/03/28 15:03:34;;;;;;;17.27;10.02;;;21.00;46.00;;;;;;4882566;29;20024;-92
2022/03/28 15:05:59;;;;;;;15.57;11.45;;;21.10;46.80;;;;;;4898527;29;20068;-94
2022/03/28 15:08:25;;;;;;;15.32;10.50;;;21.10;46.70;;;;;;4881515;29;20028;-92
2022/03/28 15:10:53;;;;;;;13.65;9.45;;;21.00;46.60;;;;;;4886643;29;20088;-84
2022/03/28 15:13:18;;;;;;;13.80;9.27;;;20.90;46.50;;;;;;4890366;29;20064;-95
2022/03/28 15:15:44;;;;;;;13.05;9.85;;;20.90;47.80;;;;;;4888962;29;20029;-95
2022/03/28 15:18:11;;;;;;;13.20;10.18;;;20.90;47.00;;;;;;4882988;29;20088;-93
2022/03/28 15:20:37;;;;;;;17.90;10.45;;;20.90;46.70;;;;;;4882303;29;20124;-92
2022/03/28 15:23:06;;;;;;;17.65;9.23;;;20.80;47.00;;;;;;4882206;29;20060;-92
2022/03/28 15:25:32;;;;;;;13.82;9.93;;;20.70;46.30;;;;;;4882158;29;20187;-92
2022/03/28 15:27:59;;;;;;;16.98;10.30;;;20.70;46.00;;;;;;4882319;29;20053;-92
2022/03/28 15:30:24;;;;;;;15.30;9.90;;;20.60;46.20;;;;;;4882098;29;20037;-93
2022/03/28 15:32:50;;;;;;;13.35;9.00;;;20.60;46.90;;;;;;4882893;29;20037;-91
2022/03/28 15:35:16;;;;;;;13.77;9.73;;;20.50;46.60;;;;;;4881870;29;20031;-93
2022/03/28 15:37:43;;;;;;;20.15;10.20;;;20.50;46.60;;;;;;4882240;29;20064;-92
2022/03/28 15:40:09;;;;;;;17.08;13.90;;;20.40;46.90;;;;;;4882122;29;20028;-90
2022/03/28 15:42:35;;;;;;;20.23;13.07;;;20.30;47.50;;;;;;4882140;29;20103;-92
2022/03/28 15:45:03;;;;;;;13.80;10.45;;;20.30;47.20;;;;;;4881862;29;20119;-92
2022/03/28 15:47:29;;;;;;;19.77;10.32;;;20.20;47.40;;;;;;4881895;29;20027;-90
2022/03/28 15:49:56;;;;;;;13.50;10.25;;;20.10;47.50;;;;;;4885382;29;20028;-90
2022/03/28 15:52:22;;;;;;;13.32;10.23;;;20.00;46.90;;;;;;4885775;29;20029;-90
2022/03/28 15:54:48;;;;;;;16.42;10.20;;;20.00;47.10;;;;;;4885743;29;20112;-90
2022/03/28 15:57:14;;;;;;;16.10;9.75;;;19.90;47.80;;;;;;4885891;29;20029;-91
2022/03/28 15:59:40;;;;;;;18.55;9.93;;;19.90;48.20;;;;;;4885901;29;20502;-90
2022/03/28 16:02:07;;;;;;;14.57;9.05;;;19.80;48.30;;;;;;4885632;29;20024;-91
2022/03/28 16:04:33;;;;;;;11.30;9.30;;;19.70;47.90;;;;;;4885599;29;20037;-90
2022/03/28 16:06:58;;;;;;;12.10;9.55;;;19.60;48.20;;;;;;4885170;29;20031;-86
2022/03/28 16:09:24;;;;;;;16.35;8.98;;;19.40;48.60;;;;;;4885713;29;20437;-90
2022/03/28 16:11:54;;;;;;;13.15;9.10;;;19.40;49.20;;;;;;4889974;29;20091;-88
2022/03/28 16:14:21;;;;;;;14.40;9.00;;;19.30;49.10;;;;;;4903951;29;20041;-91
2022/03/28 16:16:59;;;;;;;13.52;8.70;;;19.20;48.80;;;;;;4886610;29;20025;-91
2022/03/28 16:19:24;;;;;;;15.60;8.95;;;19.00;48.90;;;;;;4885342;29;20037;-91
2022/03/28 16:21:53;;;;;;;13.85;9.02;;;18.90;49.00;;;;;;4885325;29;20024;-91
2022/03/28 16:24:19;;;;;;;15.02;9.57;;;18.80;50.40;;;;;;4884826;29;20056;-91
2022/03/28 16:26:45;;;;;;;12.23;8.77;;;18.70;49.70;;;;;;4885844;29;20551;-90
2022/03/28 16:29:11;;;;;;;15.20;9.45;;;18.60;50.30;;;;;;4885382;29;20108;-91
2022/03/28 16:31:39;;;;;;;13.07;9.93;;;18.50;50.20;;;;;;4886142;29;20033;-90
2022/03/28 16:34:05;;;;;;;19.83;8.88;;;18.40;49.90;;;;;;4892108;29;20136;-79
2022/03/28 16:36:35;;;;;;;18.30;11.35;;;18.30;50.00;;;;;;4900245;29;20024;-80
2022/03/28 16:39:01;;;;;;;12.85;9.93;;;18.20;50.00;;;;;;4917770;29;20029;-78
2022/03/28 16:41:27;;;;;;;12.85;10.02;;;18.10;50.10;;;;;;4917974;29;20043;-78
2022/03/28 16:43:56;;;;;;;14.70;8.52;;;17.90;50.20;;;;;;4900661;29;20032;-79
2022/03/28 16:46:23;;;;;;;11.23;7.47;;;17.80;51.90;;;;;;4917639;29;20040;-79
2022/03/28 16:48:49;;;;;;;9.43;7.07;;;17.70;53.30;;;;;;4919014;29;20024;-89
2022/03/28 16:51:14;;;;;;;10.52;7.03;;;17.40;54.80;;;;;;4902993;29;20467;-87
2022/03/28 16:53:40;;;;;;;12.88;7.20;;;17.20;55.90;;;;;;4902421;29;20087;-85
2022/03/28 16:56:06;;;;;;;12.73;6.32;;;16.90;56.60;;;;;;4918790;29;20091;-87
2022/03/28 16:58:32;;;;;;;10.55;6.65;;;16.70;57.40;;;;;;4901855;29;20895;-85
2022/03/28 17:00:58;;;;;;;14.52;6.85;;;16.50;59.00;;;;;;4900919;29;20032;-82
2022/03/28 17:03:24;;;;;;;9.60;6.68;;;16.20;59.60;;;;;;4900983;29;20122;-83
2022/03/28 17:05:49;;;;;;;9.27;6.13;;;16.00;60.20;;;;;;4900514;29;20408;-85
2022/03/28 17:08:15;;;;;;;11.25;6.18;;;15.70;60.90;;;;;;4917631;29;20103;-85
2022/03/28 17:10:41;;;;;;;10.57;6.05;;;15.50;62.70;;;;;;4901049;29;20028;-83
2022/03/28 17:13:07;;;;;;;9.20;6.45;;;15.20;62.80;;;;;;4900793;29;20024;-85
2022/03/28 17:15:37;;;;;;;9.65;5.93;;;15.00;63.50;;;;;;4900914;29;20028;-82
2022/03/28 17:18:03;;;;;;;8.70;6.10;;;14.80;64.40;;;;;;4917988;29;20103;-84
2022/03/28 17:20:29;;;;;;;10.93;6.55;;;14.60;64.60;;;;;;4917903;29;20039;-82
2022/03/28 17:22:55;;;;;;;7.70;5.88;;;14.40;65.00;;;;;;4917653;29;20425;-81
2022/03/28 17:25:21;;;;;;;12.70;6.72;;;14.20;65.10;;;;;;4900650;29;20059;-86
2022/03/28 17:27:48;;;;;;;11.57;6.18;;;14.10;65.80;;;;;;4918114;29;20072;-85
2022/03/28 17:30:17;;;;;;;12.70;6.25;;;13.90;66.30;;;;;;4900856;29;20056;-86
2022/03/28 17:32:43;;;;;;;9.88;7.18;;;13.70;67.10;;;;;;4900684;29;20035;-85
2022/03/28 17:35:09;;;;;;;12.82;8.15;;;13.50;67.50;;;;;;4917445;29;20039;-84
2022/03/28 17:37:36;;;;;;;15.93;7.93;;;13.40;67.90;;;;;;4918021;29;20024;-82
2022/03/28 17:40:03;;;;;;;13.60;8.75;;;13.30;68.20;;;;;;4918408;29;20088;-82
2022/03/28 17:42:41;;;;;;;11.85;7.43;;;13.10;68.50;;;;;;4903502;29;20047;-81
2022/03/28 17:45:07;;;;;;;9.77;6.30;;;13.00;68.70;;;;;;4904608;29;20127;-81
2022/03/28 17:47:34;;;;;;;10.07;6.30;;;12.90;69.10;;;;;;4904389;29;20024;-81
2022/03/28 17:50:01;;;;;;;10.15;6.57;;;12.80;69.90;;;;;;4923704;29;20380;-80
2022/03/28 17:52:31;;;;;;;13.82;6.82;;;12.80;78.00;;;;;;4909037;29;20060;-81
2022/03/28 17:54:58;;;;;;;12.05;6.13;;;12.50;70.60;;;;;;4911610;29;20024;-80
2022/03/28 17:57:23;;;;;;;15.10;6.68;;;12.50;79.60;;;;;;4908779;29;20511;-80
2022/03/28 17:59:49;;;;;;;11.82;6.35;;;12.40;77.50;;;;;;4907519;29;20028;-80
2022/03/28 18:02:15;;;;;;;11.07;6.50;;;12.10;72.60;;;;;;4908276;29;20024;-80
2022/03/28 18:04:41;;;;;;;9.27;5.88;;;12.00;73.00;;;;;;4908271;29;20036;-80
2022/03/28 18:07:11;;;;;;;9.38;6.05;;;11.80;73.20;;;;;;4909333;29;20032;-81
2022/03/28 18:09:38;;;;;;;11.20;6.32;;;11.70;73.50;;;;;;4908227;29;20028;-80
2022/03/28 18:12:07;;;;;;;12.02;6.40;;;11.60;73.80;;;;;;4910226;29;20424;-80
2022/03/28 18:14:32;;;;;;;9.95;6.68;;;11.50;74.30;;;;;;4926424;29;20028;-81
2022/03/28 18:16:58;;;;;;;10.60;6.63;;;11.40;74.50;;;;;;4926717;29;20036;-81
2022/03/28 18:19:24;;;;;;;8.93;6.55;;;11.30;74.70;;;;;;4927275;29;20056;-80
2022/03/28 18:21:50;;;;;;;13.00;6.75;;;11.20;74.80;;;;;;4927278;29;20032;-80